Time;durP1;ratioP1;P1;durP2;ratioP2;P2;SDS_P1;SDS_P2;PMS_P1;PMS_P2;Temp;Humidity;BMP_temperature;BMP_pressure;BME280_temperature;BME280_humidity;BME280_pressure;Samples;Min_cycle;Max_cycle;Signal;HPM_P1;HPM_P2
2024/04/17 00:00:28;;;;;;;0.37;0.30;;;;;;;5.87;100.00;94919.75;5539915;25;20270;-84
2024/04/17 00:02:56;;;;;;;0.70;0.43;;;;;;;5.77;100.00;94921.13;5539612;25;20286;-84
2024/04/17 00:05:25;;;;;;;0.50;0.30;;;;;;;5.87;100.00;94919.75;5539627;25;20227;-84
2024/04/17 00:07:53;;;;;;;0.40;0.40;;;;;;;5.92;100.00;94914.72;5539769;25;20282;-84
2024/04/17 00:10:19;;;;;;;0.70;0.50;;;;;;;6.02;100.00;94911.66;5540096;25;20270;-84
2024/04/17 00:12:48;;;;;;;0.50;0.50;;;;;;;6.02;100.00;94915.03;5539861;25;20572;-84
2024/04/17 00:15:14;;;;;;;0.50;0.50;;;;;;;6.09;100.00;94910.59;5539384;25;20266;-84
2024/04/17 00:17:42;;;;;;;0.40;0.40;;;;;;;6.01;100.00;94912.66;5539760;25;20235;-84
2024/04/17 00:20:09;;;;;;;0.60;0.40;;;;;;;6.06;100.00;94921.50;5537511;26;20231;-84
2024/04/17 00:22:40;;;;;;;0.50;0.43;;;;;;;5.84;100.00;94912.31;5540138;25;20239;-85
2024/04/17 00:25:06;;;;;;;0.30;0.30;;;;;;;5.86;100.00;94907.66;5535584;26;20270;-84
2024/04/17 00:27:35;;;;;;;0.40;0.40;;;;;;;5.74;100.00;94908.50;5535673;25;20303;-84
2024/04/17 00:30:01;;;;;;;0.50;0.50;;;;;;;5.82;100.00;94919.53;5536810;25;20223;-85
2024/04/17 00:32:29;;;;;;;0.40;0.40;;;;;;;5.95;100.00;94910.88;5536547;25;20296;-84
2024/04/17 00:34:55;;;;;;;0.40;0.30;;;;;;;6.04;100.00;94910.44;5535785;25;20219;-85
2024/04/17 00:37:23;;;;;;;0.23;0.23;;;;;;;5.95;100.00;94911.66;5536281;25;20292;-85
2024/04/17 00:39:52;;;;;;;0.40;0.30;;;;;;;5.74;100.00;94911.88;5534190;26;20232;-85
2024/04/17 00:42:21;;;;;;;0.70;0.50;;;;;;;5.71;100.00;94911.50;5534920;26;20258;-84
2024/04/17 00:44:47;;;;;;;0.27;0.27;;;;;;;5.75;100.00;94910.91;5533903;26;20249;-85
2024/04/17 00:47:15;;;;;;;0.40;0.40;;;;;;;5.75;100.00;94912.69;5536910;25;20239;-84
2024/04/17 00:49:41;;;;;;;0.30;0.30;;;;;;;5.74;100.00;94909.28;5536579;25;20232;-84
2024/04/17 00:52:10;;;;;;;0.40;0.40;;;;;;;5.88;100.00;94902.25;5519726;25;20320;-84
2024/04/17 00:54:36;;;;;;;0.60;0.50;;;;;;;5.90;100.00;94910.69;5499524;26;20271;-84
2024/04/17 00:57:07;;;;;;;0.27;0.27;;;;;;;5.80;100.00;94908.47;5497722;26;20248;-84
2024/04/17 00:59:33;;;;;;;0.30;0.30;;;;;;;5.71;100.00;94908.91;5500252;26;20682;-84
2024/04/17 01:02:02;;;;;;;0.67;0.30;;;;;;;5.72;100.00;94913.13;5500234;26;20236;-85
2024/04/17 01:04:28;;;;;;;0.40;0.40;;;;;;;5.60;100.00;94908.50;5499920;26;20224;-84
2024/04/17 01:06:56;;;;;;;0.23;0.23;;;;;;;5.64;100.00;94914.16;5498901;26;20280;-84
2024/04/17 01:09:22;;;;;;;0.20;0.20;;;;;;;5.65;100.00;94909.72;5500471;26;20717;-85
2024/04/17 01:11:51;;;;;;;0.17;0.17;;;;;;;5.76;100.00;94909.91;5501971;26;20272;-84
2024/04/17 01:14:19;;;;;;;0.20;0.17;;;;;;;5.76;100.00;94904.69;5501037;26;20228;-84
2024/04/17 01:16:48;;;;;;;0.40;0.30;;;;;;;5.79;100.00;94908.69;5501445;26;20721;-84
2024/04/17 01:19:14;;;;;;;1.03;0.50;;;;;;;5.82;100.00;94898.63;5499868;26;20221;-84
2024/04/17 01:21:43;;;;;;;1.93;0.90;;;;;;;5.76;100.00;94898.66;5500086;26;20323;-84
2024/04/17 01:24:11;;;;;;;0.20;0.20;;;;;;;5.94;100.00;94896.19;5501104;26;20270;-84
2024/04/17 01:26:40;;;;;;;0.63;0.40;;;;;;;5.92;100.00;94893.78;5498206;26;20229;-84
2024/04/17 01:29:06;;;;;;;0.30;0.30;;;;;;;5.87;100.00;94890.19;5495269;26;20229;-84
2024/04/17 01:31:35;;;;;;;0.20;0.20;;;;;;;5.88;99.74;94886.59;5497381;26;20296;-84
2024/04/17 01:34:01;;;;;;;0.20;0.20;;;;;;;5.70;99.96;94894.22;5494934;26;20225;-84
2024/04/17 01:36:30;;;;;;;0.20;0.20;;;;;;;5.79;100.00;94888.56;5497757;26;20271;-84
2024/04/17 01:38:56;;;;;;;0.10;0.10;;;;;;;5.83;100.00;94883.75;5497670;26;20228;-84
2024/04/17 01:41:28;;;;;;;0.30;0.30;;;;;;;5.81;100.00;94888.38;5497708;26;20288;-84
2024/04/17 01:43:53;;;;;;;0.20;0.20;;;;;;;5.56;99.94;94891.66;5496788;26;20659;-84
2024/04/17 01:46:22;;;;;;;0.20;0.20;;;;;;;5.83;100.00;94883.75;5495643;26;20272;-84
2024/04/17 01:48:48;;;;;;;0.73;0.20;;;;;;;5.88;99.59;94879.53;5495979;26;20236;-84
2024/04/17 01:51:16;;;;;;;0.30;0.30;;;;;;;5.80;99.53;94877.13;5494921;26;20258;-84
2024/04/17 01:53:43;;;;;;;0.30;0.30;;;;;;;5.70;98.60;94879.34;5497247;26;20370;-84
2024/04/17 01:56:11;;;;;;;0.37;0.30;;;;;;;5.45;99.20;94886.25;5497452;26;20305;-84
2024/04/17 01:58:40;;;;;;;0.60;0.20;;;;;;;5.66;100.00;94883.41;5497269;26;20274;-84
2024/04/17 02:01:08;;;;;;;0.83;0.40;;;;;;;5.80;100.00;94889.38;5497601;26;20225;-84
2024/04/17 02:03:35;;;;;;;2.10;0.40;;;;;;;5.87;99.72;94883.16;5494610;26;20259;-84
2024/04/17 02:06:04;;;;;;;0.40;0.40;;;;;;;5.92;99.75;94883.34;5495278;26;20597;-84
2024/04/17 02:08:30;;;;;;;0.60;0.33;;;;;;;5.95;99.75;94882.13;5496989;26;20237;-84
2024/04/17 02:10:58;;;;;;;0.60;0.50;;;;;;;5.81;99.76;94894.38;5496639;26;20228;-84
2024/04/17 02:13:24;;;;;;;0.33;0.33;;;;;;;5.89;99.52;94885.56;5496925;26;20330;-84
2024/04/17 02:15:55;;;;;;;0.40;0.30;;;;;;;5.99;99.74;94891.97;5496411;26;20300;-84
2024/04/17 02:18:21;;;;;;;0.87;0.30;;;;;;;5.97;99.64;94893.19;5497220;26;20237;-84
2024/04/17 02:20:50;;;;;;;0.63;0.47;;;;;;;6.10;99.74;94891.31;5494663;26;20278;-84
2024/04/17 02:23:16;;;;;;;0.43;0.40;;;;;;;5.95;99.81;94884.75;5497404;26;20225;-85
2024/04/17 02:25:44;;;;;;;0.37;0.37;;;;;;;6.05;100.00;94890.31;5496215;26;21091;-85
2024/04/17 02:28:10;;;;;;;0.73;0.50;;;;;;;6.17;100.00;94886.03;5496258;26;20241;-84
2024/04/17 02:30:38;;;;;;;0.93;0.80;;;;;;;6.09;100.00;94888.91;5496150;26;20633;-85
2024/04/17 02:33:08;;;;;;;0.50;0.50;;;;;;;6.08;100.00;94884.69;5494616;26;20248;-84
2024/04/17 02:35:37;;;;;;;1.33;0.60;;;;;;;6.10;100.00;94885.25;5496219;26;20268;-84
2024/04/17 02:38:04;;;;;;;0.60;0.50;;;;;;;6.18;100.00;94885.81;5494519;26;20284;-84
2024/04/17 02:40:32;;;;;;;0.70;0.70;;;;;;;5.95;100.00;94888.13;5497017;26;20225;-85
2024/04/17 02:42:58;;;;;;;0.53;0.50;;;;;;;6.03;100.00;94895.75;5496702;26;20280;-85
2024/04/17 02:45:27;;;;;;;0.70;0.50;;;;;;;6.07;100.00;94896.13;5496232;26;20244;-85
2024/04/17 02:47:53;;;;;;;0.60;0.60;;;;;;;6.20;100.00;94893.47;5496644;26;20668;-84
2024/04/17 02:50:24;;;;;;;0.70;0.70;;;;;;;6.14;100.00;94892.47;5495833;26;20228;-84
2024/04/17 02:52:50;;;;;;;0.60;0.60;;;;;;;6.10;100.00;94886.06;5494219;26;20258;-84
2024/04/17 02:55:18;;;;;;;0.63;0.63;;;;;;;6.04;100.00;94896.56;5494506;26;20233;-85
2024/04/17 02:57:44;;;;;;;0.50;0.50;;;;;;;6.14;100.00;94889.88;5496148;26;20342;-85
2024/04/17 03:00:17;;;;;;;1.00;0.90;;;;;;;6.08;100.00;94882.88;5494534;26;20280;-84
2024/04/17 03:02:43;;;;;;;0.90;0.57;;;;;;;6.05;100.00;94898.16;5497229;26;20224;-84
2024/04/17 03:05:11;;;;;;;0.50;0.50;;;;;;;6.05;100.00;94900.78;5496626;26;20225;-85
2024/04/17 03:07:44;;;;;;;1.90;0.80;;;;;;;6.04;100.00;94891.34;5497492;26;20240;-84
2024/04/17 03:10:12;;;;;;;0.70;0.50;;;;;;;6.04;100.00;94897.38;5497114;26;20309;-85
2024/04/17 03:12:38;;;;;;;0.80;0.70;;;;;;;6.11;100.00;94887.66;5496672;26;20271;-84
2024/04/17 03:15:07;;;;;;;0.50;0.40;;;;;;;6.20;100.00;94896.91;5496265;26;20284;-84
2024/04/17 03:17:33;;;;;;;0.67;0.57;;;;;;;6.16;100.00;94900.91;5494495;26;20299;-84
2024/04/17 03:20:02;;;;;;;0.83;0.37;;;;;;;6.15;100.00;94895.91;5497747;26;20334;-84
2024/04/17 03:22:28;;;;;;;0.47;0.40;;;;;;;6.15;100.00;94891.50;5497114;26;20228;-84
2024/04/17 03:24:59;;;;;;;0.70;0.53;;;;;;;6.25;100.00;94893.66;5496323;26;20289;-84
2024/04/17 03:27:25;;;;;;;0.50;0.50;;;;;;;6.30;100.00;94888.59;5494531;26;20244;-85
2024/04/17 03:29:53;;;;;;;0.50;0.43;;;;;;;6.35;100.00;94901.81;5496315;26;20300;-84
2024/04/17 03:32:22;;;;;;;0.93;0.50;;;;;;;6.16;100.00;94894.91;5496983;26;20271;-84
2024/04/17 03:34:48;;;;;;;0.53;0.50;;;;;;;6.19;100.00;94900.50;5496342;26;20271;-84
2024/04/17 03:37:16;;;;;;;1.23;0.50;;;;;;;6.15;100.00;94899.31;5496692;26;20288;-84
2024/04/17 03:39:45;;;;;;;0.80;0.60;;;;;;;6.17;100.00;94899.91;5496985;26;20232;-84
2024/04/17 03:42:13;;;;;;;0.70;0.60;;;;;;;6.23;100.00;94901.69;5521596;26;20243;-84
2024/04/17 03:44:42;;;;;;;0.50;0.50;;;;;;;6.31;100.00;94898.03;5535153;25;20274;-84
2024/04/17 03:47:11;;;;;;;0.63;0.63;;;;;;;6.13;100.00;94905.78;5535189;25;20235;-84
2024/04/17 03:49:39;;;;;;;0.90;0.80;;;;;;;6.16;100.00;94900.13;5503750;25;20240;-84
2024/04/17 03:52:05;;;;;;;2.80;1.77;;;;;;;6.19;100.00;94900.50;5498479;26;20229;-84
2024/04/17 03:54:34;;;;;;;1.30;1.20;;;;;;;6.21;100.00;94901.09;5494333;26;20633;-84
2024/04/17 03:57:00;;;;;;;1.77;0.70;;;;;;;6.03;100.00;94906.22;5494368;26;20237;-85
2024/04/17 03:59:31;;;;;;;10.77;4.40;;;;;;;6.06;100.00;94907.63;5491284;26;20303;-84
2024/04/17 04:01:57;;;;;;;18.93;9.07;;;;;;;6.14;100.00;94902.94;5496399;26;20275;-84
2024/04/17 04:04:26;;;;;;;7.23;4.73;;;;;;;6.16;100.00;94903.53;5494848;26;20236;-85
2024/04/17 04:06:52;;;;;;;3.77;2.40;;;;;;;6.13;100.00;94900.53;5498567;26;20291;-84
2024/04/17 04:09:20;;;;;;;3.07;2.20;;;;;;;6.07;100.00;94911.81;5497810;26;20284;-85
2024/04/17 04:11:46;;;;;;;3.13;2.47;;;;;;;5.92;100.00;94909.47;5498195;26;20229;-84
2024/04/17 04:14:15;;;;;;;0.80;0.80;;;;;;;5.75;100.00;94915.31;5497147;26;20275;-84
2024/04/17 04:16:44;;;;;;;1.27;1.17;;;;;;;5.56;100.00;94924.81;5497254;26;20232;-84
2024/04/17 04:19:13;;;;;;;1.00;0.60;;;;;;;5.39;100.00;94921.81;5498092;26;20292;-84
2024/04/17 04:21:39;;;;;;;0.63;0.60;;;;;;;5.43;100.00;94920.41;5497505;26;20271;-84
2024/04/17 04:24:08;;;;;;;0.47;0.47;;;;;;;5.45;100.00;94922.81;5495191;26;20256;-85
2024/04/17 04:26:34;;;;;;;0.60;0.60;;;;;;;5.68;100.00;94931.00;5498242;26;20712;-84
2024/04/17 04:29:03;;;;;;;0.57;0.57;;;;;;;5.77;100.00;94924.56;5497698;26;20296;-84
2024/04/17 04:31:29;;;;;;;0.70;0.70;;;;;;;5.80;100.00;94933.78;5495604;26;20233;-84
2024/04/17 04:34:00;;;;;;;1.13;1.07;;;;;;;5.92;100.00;94929.56;5495235;26;20619;-84
2024/04/17 04:36:26;;;;;;;1.37;1.27;;;;;;;5.77;100.00;94932.38;5499140;26;20225;-84
2024/04/17 04:38:54;;;;;;;0.80;0.80;;;;;;;5.67;100.00;94944.28;5496427;26;20341;-84
2024/04/17 04:41:20;;;;;;;0.53;0.50;;;;;;;5.64;100.00;94940.28;5496827;26;20572;-84
2024/04/17 04:43:49;;;;;;;0.80;0.80;;;;;;;5.40;100.00;94946.94;5500305;26;20292;-84
2024/04/17 04:46:15;;;;;;;3.23;2.93;;;;;;;5.31;100.00;94953.38;5498020;26;21057;-84
2024/04/17 04:48:43;;;;;;;0.30;0.20;;;;;;;5.16;100.00;94950.16;5495414;26;20273;-84
2024/04/17 04:51:14;;;;;;;0.10;0.10;;;;;;;5.07;100.00;94960.97;5498100;26;20751;-84
2024/04/17 04:53:40;;;;;;;0.60;0.20;;;;;;;5.05;100.00;94963.00;5497164;26;20236;-84
2024/04/17 04:56:09;;;;;;;0.20;0.20;;;;;;;4.91;100.00;94962.19;5496049;26;20816;-84
2024/04/17 04:58:35;;;;;;;1.50;0.20;;;;;;;5.08;100.00;94968.63;5495706;26;20232;-84
2024/04/17 05:01:04;;;;;;;0.10;0.10;;;;;;;4.89;100.00;94964.19;5495169;26;20268;-84
2024/04/17 05:03:29;;;;;;;0.37;0.37;;;;;;;4.75;100.00;94973.00;5497586;26;20224;-84
2024/04/17 05:05:58;;;;;;;0.60;0.30;;;;;;;4.72;100.00;94963.75;5498563;26;20292;-84
2024/04/17 05:08:29;;;;;;;0.30;0.30;;;;;;;4.91;100.00;94959.56;5494251;26;20365;-84
2024/04/17 05:10:56;;;;;;;0.60;0.60;;;;;;;4.98;100.00;94963.00;5498582;26;20221;-84
2024/04/17 05:13:24;;;;;;;0.30;0.30;;;;;;;4.91;100.00;94975.22;5498977;26;20229;-84
2024/04/17 05:15:50;;;;;;;0.13;0.13;;;;;;;4.87;100.00;94979.25;5492081;26;20274;-84
2024/04/17 05:18:18;;;;;;;0.33;0.33;;;;;;;4.86;100.00;94978.44;5494263;25;20304;-84
2024/04/17 05:20:44;;;;;;;0.43;0.43;;;;;;;4.83;100.00;94984.03;5495776;26;20271;-84
2024/04/17 05:23:13;;;;;;;0.50;0.40;;;;;;;4.77;100.00;94979.63;5511407;26;20291;-84
2024/04/17 05:25:44;;;;;;;2.00;0.87;;;;;;;4.80;100.00;94981.84;5513747;25;20783;-84
2024/04/17 05:28:13;;;;;;;0.40;0.33;;;;;;;4.81;100.00;95004.31;5521458;26;20245;-85
2024/04/17 05:30:39;;;;;;;1.83;1.10;;;;;;;4.84;100.00;94993.47;5511577;26;20613;-84
2024/04/17 05:33:08;;;;;;;1.77;0.90;;;;;;;4.83;100.00;94991.84;5502607;26;20707;-84
2024/04/17 05:35:34;;;;;;;0.80;0.70;;;;;;;4.87;100.00;95000.91;5521412;26;20287;-84
2024/04/17 05:38:03;;;;;;;0.97;0.40;;;;;;;4.84;100.00;95001.31;5511573;26;20241;-84
2024/04/17 05:40:28;;;;;;;2.30;1.17;;;;;;;4.80;100.00;95004.50;5522123;26;20308;-84
2024/04/17 05:43:00;;;;;;;0.83;0.80;;;;;;;4.63;100.00;95013.69;5510238;26;20244;-84
2024/04/17 05:45:25;;;;;;;0.87;0.40;;;;;;;4.49;100.00;95017.25;5511026;26;20279;-84
2024/04/17 05:47:54;;;;;;;0.50;0.40;;;;;;;4.40;100.00;95021.84;5503526;25;20807;-84
2024/04/17 05:50:20;;;;;;;0.90;0.40;;;;;;;4.53;100.00;95015.84;5518589;26;20239;-84
2024/04/17 05:52:49;;;;;;;0.50;0.50;;;;;;;4.35;100.00;95021.59;5498968;25;20609;-84
2024/04/17 05:55:18;;;;;;;0.57;0.50;;;;;;;4.36;100.00;95030.25;5518944;26;20282;-84
2024/04/17 05:57:44;;;;;;;0.60;0.40;;;;;;;4.10;100.00;95030.91;5509392;26;20740;-84
2024/04/17 06:00:17;;;;;;;0.43;0.40;;;;;;;4.02;100.00;95036.25;5508335;26;20543;-84
2024/04/17 06:02:43;;;;;;;1.93;0.70;;;;;;;4.03;100.00;95030.06;5502097;26;20708;-84
2024/04/17 06:05:11;;;;;;;0.40;0.40;;;;;;;4.00;100.00;95033.88;5507384;25;20533;-84
2024/04/17 06:07:38;;;;;;;0.60;0.60;;;;;;;3.96;100.00;95037.84;5508485;26;20241;-83
2024/04/17 06:10:07;;;;;;;1.13;0.67;;;;;;;3.98;100.00;95043.69;5498546;26;20244;-84
2024/04/17 06:12:33;;;;;;;3.47;0.70;;;;;;;4.11;100.00;95032.50;5513463;25;20782;-84
2024/04/17 06:15:02;;;;;;;1.23;0.70;;;;;;;4.03;100.00;95038.69;5504198;26;20373;-84
2024/04/17 06:17:31;;;;;;;0.70;0.63;;;;;;;4.13;100.00;95048.78;5502635;25;20297;-83
2024/04/17 06:19:59;;;;;;;0.70;0.70;;;;;;;4.27;100.00;95040.00;5501762;25;20579;-84
2024/04/17 06:22:25;;;;;;;1.00;0.80;;;;;;;4.44;100.00;95043.91;5514599;25;20766;-84
2024/04/17 06:24:54;;;;;;;1.87;1.27;;;;;;;4.61;100.00;95033.94;5506475;26;20582;-84
2024/04/17 06:27:20;;;;;;;0.93;0.70;;;;;;;4.70;100.00;95049.22;5523864;26;20251;-84
2024/04/17 06:29:48;;;;;;;0.50;0.50;;;;;;;4.68;100.00;95042.59;5506260;26;20663;-84
2024/04/17 06:32:15;;;;;;;1.57;0.50;;;;;;;4.71;100.00;95040.38;5491946;26;20412;-84
2024/04/17 06:34:46;;;;;;;0.33;0.33;;;;;;;4.74;100.00;95044.41;5500515;26;21256;-84
2024/04/17 06:37:12;;;;;;;0.50;0.50;;;;;;;4.69;100.00;95039.78;5493423;26;20638;-84
2024/04/17 06:39:41;;;;;;;0.70;0.50;;;;;;;4.67;100.00;95054.81;5518048;25;20303;-84
2024/04/17 06:42:06;;;;;;;3.90;0.90;;;;;;;4.62;100.00;95046.78;5515241;26;20248;-84
2024/04/17 06:44:38;;;;;;;0.70;0.60;;;;;;;4.47;100.00;95056.56;5516210;26;20244;-84
2024/04/17 06:47:05;;;;;;;1.10;0.90;;;;;;;4.45;100.00;95050.75;5500845;26;20581;-84
2024/04/17 06:49:33;;;;;;;1.23;0.70;;;;;;;4.22;100.00;95054.63;5500857;26;20239;-84
2024/04/17 06:52:02;;;;;;;4.07;2.67;;;;;;;4.27;100.00;95060.06;5493266;26;20336;-84
2024/04/17 06:54:30;;;;;;;1.63;1.33;;;;;;;4.27;100.00;95062.69;5506446;26;20352;-84
2024/04/17 06:56:56;;;;;;;1.40;1.30;;;;;;;4.02;100.00;95065.75;5520097;26;20341;-84
2024/04/17 06:59:24;;;;;;;36.50;27.73;;;;;;;4.18;100.00;95072.44;5526612;26;20302;-84
2024/04/17 07:01:50;;;;;;;5.97;5.13;;;;;;;4.26;100.00;95076.69;5526614;26;20347;-84
2024/04/17 07:04:21;;;;;;;6.50;1.87;;;;;;;4.45;100.00;95068.19;5527653;25;20295;-84
2024/04/17 07:06:47;;;;;;;2.20;1.20;;;;;;;4.46;100.00;95073.19;5528069;25;20271;-85
2024/04/17 07:09:18;;;;;;;0.93;0.77;;;;;;;4.34;100.00;95073.94;5526801;26;20231;-84
2024/04/17 07:11:44;;;;;;;0.53;0.50;;;;;;;4.16;100.00;95074.44;5526252;26;20235;-85
2024/04/17 07:14:12;;;;;;;0.70;0.50;;;;;;;4.26;100.00;95082.72;5528156;25;20586;-84
2024/04/17 07:16:38;;;;;;;1.27;0.90;;;;;;;4.31;100.00;95080.34;5528939;25;20378;-86
2024/04/17 07:19:07;;;;;;;2.07;0.40;;;;;;;4.10;100.00;95083.84;5529006;25;20224;-86
2024/04/17 07:21:33;;;;;;;0.33;0.30;;;;;;;4.17;100.00;95070.84;5528368;25;20283;-85
2024/04/17 07:24:02;;;;;;;0.47;0.47;;;;;;;4.27;100.00;95078.31;5527069;25;20224;-86
2024/04/17 07:26:30;;;;;;;4.17;2.67;;;;;;;4.35;100.00;95088.56;5527231;25;20754;-88
2024/04/17 07:28:59;;;;;;;2.10;1.80;;;;;;;4.30;100.00;95083.13;5527800;25;20731;-86
2024/04/17 07:31:26;;;;;;;0.50;0.47;;;;;;;4.45;100.00;95087.25;5528287;25;20440;-87
2024/04/17 07:33:54;;;;;;;0.87;0.80;;;;;;;4.44;100.00;95085.63;5526614;25;20287;-88
2024/04/17 07:36:20;;;;;;;0.97;0.87;;;;;;;4.50;100.00;95084.84;5530787;25;20445;-87
2024/04/17 07:38:49;;;;;;;1.97;1.60;;;;;;;4.50;100.00;95084.84;5529485;26;20257;-86
2024/04/17 07:41:15;;;;;;;4.73;2.80;;;;;;;4.36;100.00;95092.81;5529590;26;20231;-86
2024/04/17 07:43:46;;;;;;;3.40;2.53;;;;;;;4.17;100.00;95094.28;5530309;25;20277;-86
2024/04/17 07:46:12;;;;;;;3.40;3.00;;;;;;;4.28;100.00;95092.94;5530674;26;20667;-86
2024/04/17 07:48:40;;;;;;;1.33;1.17;;;;;;;4.26;100.00;95087.13;5531416;25;20303;-86
2024/04/17 07:51:06;;;;;;;1.53;1.43;;;;;;;4.36;100.00;95098.81;5532529;25;20562;-86
2024/04/17 07:53:35;;;;;;;2.10;1.90;;;;;;;4.62;100.00;95093.72;5529491;26;20258;-86
2024/04/17 07:56:01;;;;;;;1.50;1.03;;;;;;;4.55;100.00;95092.88;5532237;25;20227;-86
2024/04/17 07:58:29;;;;;;;1.03;0.60;;;;;;;4.45;100.00;95095.06;5532493;25;20330;-86
2024/04/17 08:00:58;;;;;;;0.70;0.63;;;;;;;4.54;100.00;95104.31;5531888;25;20596;-86
2024/04/17 08:03:26;;;;;;;11.57;8.17;;;;;;;4.52;100.00;95097.69;5530077;26;20235;-86
2024/04/17 08:05:52;;;;;;;2.70;2.13;;;;;;;4.64;100.00;95091.75;5529862;26;20262;-87
2024/04/17 08:08:21;;;;;;;1.30;1.20;;;;;;;4.84;100.00;95094.41;5531119;25;20294;-86
2024/04/17 08:10:50;;;;;;;1.10;1.00;;;;;;;4.87;100.00;95080.97;5532459;26;20250;-86
2024/04/17 08:13:16;;;;;;;2.13;1.10;;;;;;;4.95;100.00;95083.41;5532406;25;20274;-86
2024/04/17 08:15:45;;;;;;;1.13;1.03;;;;;;;4.99;100.00;95089.88;5531495;25;20223;-86
2024/04/17 08:18:13;;;;;;;1.43;0.97;;;;;;;5.11;100.00;95087.47;5532345;25;20282;-86
2024/04/17 08:20:42;;;;;;;2.17;1.00;;;;;;;5.14;100.00;95090.50;5532128;25;20716;-86
2024/04/17 08:23:08;;;;;;;1.17;1.07;;;;;;;5.27;100.00;95087.13;5532756;25;20272;-85
2024/04/17 08:25:36;;;;;;;2.40;1.57;;;;;;;5.30;100.00;95087.50;5531226;25;20279;-86
2024/04/17 08:28:05;;;;;;;1.60;1.50;;;;;;;5.31;100.00;95096.97;5532013;25;20286;-87
2024/04/17 08:30:32;;;;;;;2.13;1.20;;;;;;;5.29;100.00;95095.53;5532539;25;20274;-86
2024/04/17 08:33:00;;;;;;;5.47;2.73;;;;;;;5.29;100.00;95100.78;5529325;26;20247;-86
2024/04/17 08:35:29;;;;;;;8.17;6.40;;;;;;;5.33;100.00;95097.56;5532120;25;20224;-86
2024/04/17 08:37:57;;;;;;;1.40;1.20;;;;;;;5.18;100.00;95111.78;5532648;26;20288;-86
2024/04/17 08:40:26;;;;;;;1.73;1.63;;;;;;;5.07;100.00;95104.50;5529915;26;20235;-86
2024/04/17 08:42:51;;;;;;;1.50;1.40;;;;;;;5.17;100.00;95105.75;5532814;25;20224;-86
2024/04/17 08:45:24;;;;;;;0.93;0.93;;;;;;;5.10;100.00;95117.19;5530368;25;20631;-86
2024/04/17 08:47:50;;;;;;;5.13;1.37;;;;;;;5.14;100.00;95113.16;5528071;26;20239;-86
2024/04/17 08:50:18;;;;;;;1.30;1.20;;;;;;;5.35;100.00;95116.44;5531265;25;20283;-86
2024/04/17 08:52:47;;;;;;;1.00;1.00;;;;;;;5.21;100.00;95119.22;5528720;26;20258;-86
2024/04/17 08:55:15;;;;;;;0.80;0.80;;;;;;;5.20;100.00;95122.84;5531925;26;20266;-86
2024/04/17 08:57:41;;;;;;;0.50;0.50;;;;;;;5.10;100.00;95120.59;5532426;25;20297;-86
2024/04/17 09:00:11;;;;;;;0.73;0.40;;;;;;;4.97;100.00;95119.75;5531719;25;20287;-86
2024/04/17 09:02:37;;;;;;;0.90;0.53;;;;;;;4.91;100.00;95121.34;5531599;25;20224;-86
2024/04/17 09:05:06;;;;;;;0.63;0.40;;;;;;;5.13;100.00;95122.81;5531537;25;20620;-86
2024/04/17 09:07:32;;;;;;;0.50;0.40;;;;;;;5.18;100.00;95120.41;5531064;25;20723;-86
2024/04/17 09:10:03;;;;;;;1.20;1.10;;;;;;;5.40;100.00;95121.06;5532912;25;20273;-86
2024/04/17 09:12:30;;;;;;;1.50;1.40;;;;;;;5.35;100.00;95120.84;5532606;25;20266;-86
2024/04/17 09:14:59;;;;;;;2.83;0.60;;;;;;;5.34;100.00;95122.69;5531384;25;20224;-86
2024/04/17 09:17:25;;;;;;;0.80;0.63;;;;;;;5.36;100.00;95125.09;5530773;26;20247;-86
2024/04/17 09:19:53;;;;;;;1.27;1.03;;;;;;;5.51;100.00;95121.28;5533072;25;20748;-86
2024/04/17 09:22:19;;;;;;;1.03;0.93;;;;;;;5.56;100.00;95123.31;5532696;25;20228;-86
2024/04/17 09:24:48;;;;;;;0.83;0.83;;;;;;;5.29;100.00;95130.28;5530535;25;20273;-86
2024/04/17 09:27:16;;;;;;;2.23;0.97;;;;;;;5.58;100.00;95124.72;5532123;25;20236;-86
2024/04/17 09:29:45;;;;;;;1.53;1.27;;;;;;;5.68;100.00;95128.75;5531571;26;20688;-86
2024/04/17 09:32:14;;;;;;;1.13;1.03;;;;;;;5.43;100.00;95118.06;5532972;25;20244;-86
2024/04/17 09:34:43;;;;;;;2.20;1.93;;;;;;;5.56;100.00;95125.91;5531266;25;20595;-86
2024/04/17 09:37:09;;;;;;;2.63;2.00;;;;;;;5.70;100.00;95130.16;5529996;26;20269;-87
2024/04/17 09:39:38;;;;;;;3.10;1.87;;;;;;;5.87;100.00;95122.75;5534804;26;20232;-86
2024/04/17 09:42:06;;;;;;;3.87;2.30;;;;;;;5.55;100.00;95134.78;5532698;25;20223;-86
2024/04/17 09:44:39;;;;;;;2.73;2.23;;;;;;;5.69;100.00;95122.53;5531395;25;20767;-86
2024/04/17 09:47:08;;;;;;;2.03;1.83;;;;;;;5.94;100.00;95134.81;5530888;26;20282;-87
2024/04/17 09:49:36;;;;;;;4.50;2.67;;;;;;;5.93;100.00;95130.59;5519427;25;20312;-86
2024/04/17 09:52:04;;;;;;;2.87;2.23;;;;;;;5.81;100.00;95129.53;5497599;25;20240;-86
2024/04/17 09:54:33;;;;;;;1.77;1.60;;;;;;;5.55;100.00;95126.94;5495625;26;20288;-86
2024/04/17 09:56:58;;;;;;;2.90;2.33;;;;;;;5.67;100.00;95133.16;5529073;25;20615;-86
2024/04/17 09:59:27;;;;;;;11.33;5.03;;;;;;;5.84;100.00;95128.34;5521078;26;20299;-86
2024/04/17 10:01:56;;;;;;;8.00;4.37;;;;;;;5.87;100.00;95118.34;5505923;25;20594;-86
2024/04/17 10:04:24;;;;;;;9.53;3.87;;;;;;;5.58;100.00;95137.78;5512219;25;20245;-86
2024/04/17 10:06:50;;;;;;;5.63;3.90;;;;;;;5.66;100.00;95122.91;5497535;26;20252;-86
2024/04/17 10:09:19;;;;;;;6.73;3.67;;;;;;;5.81;100.00;95131.38;5511111;26;20822;-86
2024/04/17 10:11:50;;;;;;;5.03;3.87;;;;;;;5.98;100.00;95127.38;5521511;25;20247;-87
2024/04/17 10:14:19;;;;;;;8.00;4.13;;;;;;;6.16;100.00;95128.38;5520828;25;20326;-85
2024/04/17 10:16:46;;;;;;;5.80;3.80;;;;;;;6.12;99.79;95119.34;5514684;26;20299;-86
2024/04/17 10:19:17;;;;;;;9.93;3.87;;;;;;;6.38;100.00;95120.28;5508001;26;20290;-86
2024/04/17 10:21:43;;;;;;;7.23;3.43;;;;;;;6.31;100.00;95125.53;5516330;26;20286;-87
2024/04/17 10:24:12;;;;;;;8.87;4.70;;;;;;;6.32;97.63;95126.34;5506195;26;20650;-86
2024/04/17 10:26:43;;;;;;;9.73;4.80;;;;;;;6.47;97.54;95113.84;5527861;26;20262;-86
2024/04/17 10:29:17;;;;;;;10.13;4.93;;;;;;;6.56;97.76;95115.25;5507463;25;20232;-86
2024/04/17 10:31:56;;;;;;;7.13;3.57;;;;;;;6.74;98.55;95108.34;5524080;25;20236;-87
2024/04/17 10:34:28;;;;;;;7.50;5.20;;;;;;;6.78;98.00;95114.78;5496597;26;20583;-85
2024/04/17 10:36:54;;;;;;;4.10;3.63;;;;;;;6.75;96.40;95109.13;5526702;25;20603;-87
2024/04/17 10:39:23;;;;;;;5.80;3.73;;;;;;;6.64;96.56;95110.59;5529280;25;20223;-87
2024/04/17 10:41:49;;;;;;;6.53;4.30;;;;;;;6.64;97.43;95115.81;5529091;25;20273;-86
2024/04/17 10:44:17;;;;;;;6.37;4.10;;;;;;;6.56;97.74;95121.25;5529591;25;20623;-86
2024/04/17 10:46:43;;;;;;;6.07;4.00;;;;;;;6.35;95.79;95124.13;5529581;25;20286;-87
2024/04/17 10:49:17;;;;;;;6.87;4.20;;;;;;;6.38;96.22;95112.44;5528240;25;20287;-86
2024/04/17 10:51:46;;;;;;;4.50;3.83;;;;;;;6.24;97.81;95120.34;5529456;25;20223;-86
2024/04/17 10:54:15;;;;;;;7.20;4.13;;;;;;;6.64;100.00;95110.59;5529024;25;20546;-86
2024/04/17 10:56:40;;;;;;;8.30;4.67;;;;;;;7.00;100.00;95107.44;5529055;25;20286;-86
2024/04/17 10:59:09;;;;;;;5.73;4.57;;;;;;;6.95;98.07;95107.25;5529126;25;20287;-86
2024/04/17 11:01:35;;;;;;;7.10;4.57;;;;;;;7.00;97.29;95107.44;5529246;25;20275;-85
2024/04/17 11:04:03;;;;;;;5.73;4.20;;;;;;;7.03;96.71;95106.19;5528492;25;20279;-85
2024/04/17 11:06:29;;;;;;;7.47;3.93;;;;;;;7.03;97.75;95114.84;5528632;25;20232;-86
2024/04/17 11:09:01;;;;;;;4.73;3.27;;;;;;;6.90;94.66;95112.31;5528033;25;20265;-85
2024/04/17 11:11:27;;;;;;;5.53;3.80;;;;;;;6.76;93.17;95105.50;5528229;25;20227;-86
2024/04/17 11:13:55;;;;;;;7.90;3.13;;;;;;;6.80;93.43;95114.56;5528018;25;20823;-86
2024/04/17 11:16:21;;;;;;;4.67;3.60;;;;;;;7.09;94.29;95103.56;5527268;26;20250;-86
2024/04/17 11:18:50;;;;;;;5.33;3.70;;;;;;;7.16;92.23;95104.34;5526837;26;20231;-85
2024/04/17 11:21:16;;;;;;;6.57;3.30;;;;;;;7.37;90.45;95096.16;5529253;25;20314;-86
2024/04/17 11:23:45;;;;;;;6.47;3.53;;;;;;;7.87;90.80;95094.38;5528187;25;20294;-86
2024/04/17 11:26:13;;;;;;;4.30;3.40;;;;;;;8.12;90.90;95099.66;5529024;25;20715;-86
2024/04/17 11:28:45;;;;;;;7.03;2.90;;;;;;;8.16;87.71;95101.63;5526509;26;20269;-86
2024/04/17 11:31:11;;;;;;;5.33;2.97;;;;;;;8.21;87.68;95104.38;5528576;25;20275;-86
2024/04/17 11:33:40;;;;;;;6.50;3.13;;;;;;;8.01;87.58;95100.31;5527242;25;20661;-86
2024/04/17 11:36:08;;;;;;;6.87;3.20;;;;;;;7.68;86.95;95107.66;5526741;26;20262;-86